Nathaniel B. Palmer — WBP3210 — position and weather

sailwx.info

Track history (hours):
 
Tides and Currents Weather Stations Pressure Air Temp Water Temp Dewpoint Dewpoint Depression Visibility Wind Speed Wind Dir Waves Ship Positions

Oceanographic research ship Nathaniel B. Palmer (USA)

Contact: Ethan Norris, ethan.norris.contractor@usap.gov

Detailed information on ship capabilities available from University of Delaware's Ocean Information Center and ARCUS's ALIAS (Arctic Logistics Information and Support) project.

Owner: OFFSHORE SERVICE VESSELS, GALLIANO, LA. More information available from US FCC via Universal Licensing System and Coast Guard Vessel Documentation Center.

Last reported at 2017-Apr-25 16:00 UTC. Time now 2017-Apr-25 16:34 UTC.
Position S 72°48' E 171°54'.

Type: Other ship. MMSI: 366610000.

Wind from 070 at 6 knots

Barometer 989.4 mb
Air temperature -17.2 ° C
Water temperature -1.8 ° C

Date/timePositionNaut miles runAvg speedWind from/ knotsBaromVisibWave heightAir tempDewpointWater temp
2017-Apr-25 16:00S 72°48' E 171°54'0 0.0 070 / 6989.4 -17.2 -1.8
2017-Apr-25 14:00S 72°48' E 171°54'0 0.0 040 / 12989.8 -16.9 -1.7
2017-Apr-25 13:00S 72°48' E 171°54'0 0.0 040 / 12990.1 -16.8 -1.7
2017-Apr-25 12:00S 72°48' E 171°54'0 0.0 030 / 14990.4 -16.3 -1.7
2017-Apr-25 11:00S 72°48' E 171°54'0 0.0 020 / 14990.6 -17.0 -1.7
2017-Apr-25 10:00S 72°48' E 171°54'0 0.0 350 / 8991.2 -15.5 -1.7
2017-Apr-25 09:00S 72°48' E 171°54'0 0.0 330 / 10991.3 -13.2 -1.7
2017-Apr-25 08:00S 72°48' E 171°54'0 0.0 280 / 8991.5 -15.8 -1.7
2017-Apr-25 07:00S 72°48' E 171°54'0 0.0 260 / 11991.6 -16.1 -1.7
2017-Apr-25 06:00S 72°48' E 171°54'0 0.0 270 / 11991.6 -16.2 -1.7
2017-Apr-25 05:00S 72°48' E 171°54'0 0.0 270 / 11991.5 -15.1 -1.7
2017-Apr-25 04:00S 72°48' E 171°54'0 0.0 260 / 11991.4 -14.5 -1.7
2017-Apr-25 03:00S 72°48' E 171°54'0 0.0 260 / 11991.0 -13.5 -1.7
2017-Apr-25 02:00S 72°48' E 171°54'2 1.8 220 / 14990.6 -12.8 -1.7
2017-Apr-25 01:00S 72°48' E 171°48'6 6.0 210 / 19989.9 -13.0 -1.7
2017-Apr-25 00:00S 72°54' E 171°48'0 0.0 210 / 20989.6 -13.2 -1.7
2017-Apr-24 23:00S 72°54' E 171°48'0 0.0 230 / 16989.2 -13.9 -1.7
2017-Apr-24 22:00S 72°54' E 171°48'0 0.0 230 / 21988.6 -13.9 -1.7
2017-Apr-24 21:00S 72°54' E 171°48'2 1.8 220 / 24988.1 -14.1 -1.8
2017-Apr-24 20:00S 72°54' E 171°42'0 0.0 220 / 22987.7 -14.2 -1.8
2017-Apr-24 19:00S 72°54' E 171°42'2 1.8 230 / 18987.3 -14.9 -1.7
2017-Apr-24 18:00S 72°54' E 171°36'0 0.0 220 / 21986.8 -14.3 -1.8
2017-Apr-24 17:00S 72°54' E 171°36'0 0.0 210 / 26986.3 -14.3 -1.8
2017-Apr-24 16:00S 72°54' E 171°36'0 0.0 210 / 23986.1 -14.4 -1.7
2017-Apr-24 15:00S 72°54' E 171°36'0 0.0 220 / 23985.6 -14.6 -1.7
2017-Apr-24 14:00S 72°54' E 171°36'0 0.0 210 / 23985.1 -14.5 -1.7
2017-Apr-24 13:00S 72°54' E 171°36'4 3.5 210 / 24984.8 -14.9 -1.7
2017-Apr-24 12:00S 72°54' E 171°48'6 6.0 210 / 26984.1 -14.9 -1.7
2017-Apr-24 11:00S 72°48' E 171°48'6 6.0 220 / 22983.7 -15.7 -1.7
2017-Apr-24 10:00S 72°42' E 171°48'7 7.0 220 / 20983.5 -16.6 -1.7
2017-Apr-24 09:00S 72°36' E 172°00'6 6.0 220 / 19982.9 -16.6 -1.7
2017-Apr-24 08:00S 72°30' E 172°00'0 0.0 210 / 21982.7 -16.2 -1.8
2017-Apr-24 07:00S 72°30' E 172°00'6 6.0 210 / 19982.6 -16.3 -1.8
2017-Apr-24 06:00S 72°24' E 172°00'2 1.8 220 / 19982.2 -16.8 -1.8
2017-Apr-24 05:00S 72°24' E 171°54'0 0.0 220 / 18982.1 -16.6 -1.8
2017-Apr-24 04:00S 72°24' E 171°54'2 1.8 220 / 17981.9 -16.9 -1.8
2017-Apr-24 03:00S 72°24' E 172°00'4 3.6 200 / 22981.6 -16.7 -1.8
2017-Apr-24 02:00S 72°24' E 172°12'6 6.3 200 / 23981.3 -16.6 -1.8
2017-Apr-24 01:00S 72°18' E 172°06'6 6.3 210 / 20981.3 -17.0 -1.8
2017-Apr-24 00:00S 72°12' E 172°12'6 6.0 200 / 21981.1 -17.3 -1.8
2017-Apr-23 23:00S 72°06' E 172°12'6 6.3 190 / 27980.6 -16.7 -1.8
2017-Apr-23 22:00S 72°00' E 172°18'6 6.3 200 / 27980.1 -16.7 -1.8
2017-Apr-23 21:00S 71°54' E 172°12'6 6.3 200 / 28980.0 -16.7 -1.8
2017-Apr-23 20:00S 71°48' E 172°18'0 0.0 200 / 29979.7 -16.8 -1.8
2017-Apr-23 19:00S 71°48' E 172°18'0 0.0 190 / 29979.6 -16.3 -1.7
2017-Apr-23 18:00S 71°48' E 172°18'0 0.0 190 / 27979.6 -16.5 -1.7
2017-Apr-23 17:00S 71°48' E 172°18'6 6.0 190 / 27979.5 -16.8 -1.7
2017-Apr-23 16:00S 71°54' E 172°18'0 0.0 200 / 26979.4 -17.0 -1.7
2017-Apr-23 15:00S 71°54' E 172°18'0 0.0 200 / 25979.4 -17.1 -1.7
2017-Apr-23 14:00S 71°54' E 172°18'2 1.9 200 / 26979.5 -17.5 -1.8
2017-Apr-23 13:00S 71°54' E 172°12'2 1.9 200 / 26979.5 -18.1 -1.7
2017-Apr-23 12:00S 71°54' E 172°18'0 0.0 200 / 25979.4 -18.6 -1.7
2017-Apr-23 11:00S 71°54' E 172°18'0 0.0 200 / 25979.4 -18.5 -1.8
2017-Apr-23 10:00S 71°54' E 172°18'6 6.0 190 / 26979.5 -19.0 -1.8
2017-Apr-23 09:00S 71°48' E 172°18'6 6.0 200 / 26979.4 -19.4 -1.8
2017-Apr-23 08:00S 71°42' E 172°18'6 6.0 190 / 27979.2 -19.6 -1.7
2017-Apr-23 07:00S 71°36' E 172°18'7 7.1 190 / 29979.0 -19.6 -1.8
2017-Apr-23 06:00S 71°30' E 172°30'6 6.0 180 / 29978.6 -19.5 -1.8
2017-Apr-23 05:00S 71°24' E 172°30'6 6.0 180 / 29978.5 -19.9 -1.7
2017-Apr-23 04:00S 71°30' E 172°30'0 0.0 180 / 30978.5 -20.0 -1.8
2017-Apr-23 03:00S 71°30' E 172°30'0 0.0 190 / 29978.7 -19.8 -1.8
2017-Apr-23 02:00S 71°30' E 172°30'6 6.0 190 / 27978.8 -24.8 -1.8
2017-Apr-23 01:00S 71°24' E 172°30'2 1.9 190 / 27978.8 -20.3 -1.7
2017-Apr-23 00:00S 71°24' E 172°24'6 6.3 180 / 28979.0 -20.0 -1.8
2017-Apr-22 23:00S 71°18' E 172°18'6 6.3 170 / 27979.0 -20.0 -1.7
2017-Apr-22 22:00S 71°12' E 172°12'6 6.3 180 / 24978.9 -19.8 -1.7
2017-Apr-22 21:00S 71°06' E 172°06'6 6.3 170 / 23978.9 -19.7 -1.7
2017-Apr-22 20:00S 71°00' E 172°00'6 6.3 170 / 23979.0 -19.2 -1.7
2017-Apr-22 19:00S 70°54' E 171°54'0 0.0 160 / 20979.0 -18.6 -1.6
2017-Apr-22 18:00S 70°54' E 171°54'2 2.0 170 / 21979.2 -18.4 -1.7
2017-Apr-22 17:00S 70°54' E 172°00'6 6.0 160 / 21979.2 -18.5 -1.8
2017-Apr-22 16:00S 70°48' E 172°00'6 6.0 160 / 19979.3 -18.4 -1.8
2017-Apr-22 15:00S 70°42' E 172°00'6 6.0 150 / 17979.4 -18.0 -1.8
2017-Apr-22 14:00S 70°36' E 172°00'6 6.3 140 / 11979.8 -17.8 -1.8
2017-Apr-22 13:00S 70°30' E 171°54'6 6.0 130 / 11980.2 -17.7 -1.8
2017-Apr-22 12:00S 70°24' E 171°54'0 0.0 120 / 6980.7 -17.5 -1.8
2017-Apr-22 11:00S 70°24' E 171°54'6 6.3 120 / 7981.4 -17.4 -1.8
2017-Apr-22 10:00S 70°18' E 172°00'0 0.0 120 / 6981.8 -17.3 -1.8
2017-Apr-22 09:00S 70°18' E 172°00'6 6.0 130 / 5982.5 -16.7 -1.8
2017-Apr-22 08:00S 70°12' E 172°00'6 6.0 130 / 4983.0 -16.3 -1.8
2017-Apr-22 07:00S 70°06' E 172°00'6 6.0 140 / 5983.5 -16.3 -1.8
2017-Apr-22 06:00S 70°00' E 172°00'6 6.0 150 / 6984.1 -16.2 -1.8
2017-Apr-22 05:00S 69°54' E 172°00'0 0.0 190 / 4984.9 -15.8 -1.7
2017-Apr-22 04:00S 69°54' E 172°00'0 0.0 240 / 5985.9 -15.4 -1.7
2017-Apr-22 03:00S 69°54' E 172°00'0 0.0 250 / 7986.8 -25.5 -1.7
2017-Apr-22 02:00S 69°54' E 172°00'0 0.0 260 / 7987.7 -46.8 -1.7
2017-Apr-22 01:00S 69°54' E 172°00'0 0.0 240 / 6988.5 -46.8 -1.7
2017-Apr-22 00:00S 69°54' E 172°00'0 0.0 230 / 7988.9 -33.5 -1.8
2017-Apr-21 23:00S 69°54' E 172°00'2 2.1 230 / 9989.3 -22.4 -1.8
2017-Apr-21 22:00S 69°54' E 171°54'0 0.0 210 / 8989.7 -25.2 -1.7
2017-Apr-21 21:00S 69°54' E 171°54'0 0.0 190 / 8989.9 -16.1 -1.8
2017-Apr-21 20:00S 69°54' E 171°54'6 6.0 170 / 11989.9 -15.7 -1.8
2017-Apr-21 19:00S 69°48' E 171°54'6 6.0 170 / 15989.8 -16.4 -1.8
2017-Apr-21 18:00S 69°42' E 171°54'6 6.0 180 / 17989.9 -15.2 -1.8
2017-Apr-21 17:00S 69°36' E 171°54'0 0.0 180 / 16989.7 -14.7 -1.7
2017-Apr-21 16:00S 69°36' E 171°54'6 6.0 180 / 17989.5 -16.3 -1.7
2017-Apr-21 15:00S 69°30' E 171°54'6 6.0 180 / 19989.0 -14.8 -1.8
2017-Apr-21 14:00S 69°24' E 171°54'6 6.0 170 / 19988.4 -14.4 -1.8
2017-Apr-21 13:00S 69°18' E 171°54'0 0.0 170 / 20987.9 -14.2 -1.8
2017-Apr-21 12:00S 69°18' E 171°54'0 0.0 170 / 20987.3 -13.9 -1.8
2017-Apr-21 11:00S 69°18' E 171°54'0 0.0 170 / 20986.6 -13.8 -1.8
2017-Apr-21 10:00S 69°18' E 171°54'6 6.4 150 / 23986.1 -13.7 -1.8
2017-Apr-21 09:00S 69°12' E 171°48'6 6.0 160 / 23985.4 -13.4 -1.7
2017-Apr-21 08:00S 69°06' E 171°48'2 2.1 160 / 21984.7 -13.3 -1.7
2017-Apr-21 07:00S 69°06' E 171°42'0 0.0 160 / 20984.0 -13.3 -1.7
2017-Apr-21 06:00S 69°06' E 171°42'0 0.0 160 / 20983.7 -13.2 -1.7
2017-Apr-21 05:00S 69°06' E 171°42'2 2.1 150 / 20983.1 -12.8 -1.7
2017-Apr-21 04:00S 69°06' E 171°48'0 0.0 150 / 21982.4 -12.6 -1.7
2017-Apr-21 03:00S 69°06' E 171°48'2 2.1 150 / 23981.6 -12.7 -1.7
2017-Apr-21 02:00S 69°06' E 171°54'0 0.0 140 / 17981.0 -13.1 -1.7
2017-Apr-21 01:00S 69°06' E 171°54'6 6.0 160 / 21980.3 -15.8 -1.7
2017-Apr-21 00:00S 69°12' E 171°54'0 0.0 170 / 21980.2 -15.1 -1.7
2017-Apr-20 23:00S 69°12' E 171°54'0 0.0 150 / 20979.9 -20.4 -1.7
2017-Apr-20 22:00S 69°12' E 171°54'0 0.0 140 / 22979.5 -26.6 -1.7
2017-Apr-20 21:00S 69°12' E 171°54'2 2.1 150 / 22978.8 -12.0 -1.7
2017-Apr-20 20:00S 69°12' E 172°00'0 0.0 150 / 18978.6 -12.4 -1.7
2017-Apr-20 19:00S 69°12' E 172°00'0 0.0 140 / 20978.2 -12.9 -1.7
2017-Apr-20 18:00S 69°12' E 172°00'0 0.0 130 / 22977.9 -13.5 -1.7
2017-Apr-20 17:00S 69°12' E 172°00'2 2.1 120 / 24977.5 -13.8 -1.7
2017-Apr-20 16:00S 69°12' E 171°54'6 6.0 120 / 24977.0 -14.2 -1.7
2017-Apr-20 15:00S 69°18' E 171°54'0 0.0 130 / 24976.4 -14.4 -1.7
2017-Apr-20 14:00S 69°18' E 171°54'0 0.0 120 / 23976.3 -14.5 -1.7
2017-Apr-20 13:00S 69°18' E 171°54'2 2.1 120 / 25976.0 -14.7 -1.7
2017-Apr-20 12:00S 69°18' E 172°00'6 6.0 110 / 28975.2 -13.8 -1.8
2017-Apr-20 11:00S 69°12' E 172°00'6 6.0 110 / 29974.8 -13.4 -1.8
2017-Apr-20 10:00S 69°06' E 172°00'6 6.4 110 / 33974.2 -13.2 -1.8
2017-Apr-20 09:00S 69°00' E 171°54'6 6.0 100 / 35973.8 -12.4 -1.7
2017-Apr-20 08:00S 68°54' E 171°54'2 2.2 100 / 38974.1 -11.7 -1.7
2017-Apr-20 07:00S 68°54' E 171°48'6 6.4 090 / 39974.4 -10.9 -1.7
2017-Apr-20 06:00S 68°48' E 171°42'0 0.0 090 / 38974.4 -10.3 -1.7
2017-Apr-20 05:00S 68°48' E 171°42'0 0.0 080 / 37975.4 -10.2 -1.6
2017-Apr-20 04:00S 68°48' E 171°42'2 2.2 080 / 35976.8 -10.1 -1.3
2017-Apr-20 03:00S 68°48' E 171°48'0 0.0 090 / 34978.8 -10.2 -1.5
2017-Apr-20 02:00S 68°48' E 171°48'0 0.0 090 / 31980.9 -11.0 -1.4
2017-Apr-20 01:00S 68°48' E 171°48'6 6.4 090 / 26982.7 -10.4 -1.4
2017-Apr-20 00:00S 68°42' E 171°54'6 6.0 090 / 18984.3 -10.8 -1.3
2017-Apr-19 23:00S 68°48' E 171°54'0 0.0 090 / 15985.9 -12.3 -1.2
2017-Apr-19 22:00S 68°48' E 171°54'6 6.0 100 / 12987.0 -13.1 -1.2
2017-Apr-19 21:00S 68°42' E 171°54'2 2.2 090 / 8988.2 -12.8 -1.2
2017-Apr-19 20:00S 68°42' E 172°00'6 6.0 110 / 6988.7 -13.3 -1.2
2017-Apr-19 19:00S 68°48' E 172°00'6 6.0 130 / 4989.3 -13.8 -1.5
2017-Apr-19 18:00S 68°54' E 172°00'6 6.0 130 / 3990.0 -14.0 -1.6
2017-Apr-19 17:00S 68°48' E 172°00'0 0.0 120 / 4990.2 -14.0 -1.6
2017-Apr-19 16:00S 68°48' E 172°00'0 0.0 140 / 4990.4 -14.1 -1.5
2017-Apr-19 15:00S 68°48' E 172°00'0 0.0 170 / 4990.5 -14.2 -1.3
2017-Apr-19 14:00S 68°48' E 172°00'6 6.0 150 / 7990.4 -14.9 -1.6
2017-Apr-19 13:00S 68°54' E 172°00'0 0.0 150 / 8990.3 -14.6 -1.6
2017-Apr-19 12:00S 68°54' E 172°00'6 6.0 170 / 6990.5 -14.7 -1.6
2017-Apr-19 11:00S 68°48' E 172°00'6 6.0 170 / 8990.5 -14.6 -1.4
2017-Apr-19 10:00S 68°42' E 172°00'6 6.0 160 / 7990.3 -14.3 -1.3
2017-Apr-19 09:00S 68°36' E 172°00'6 6.0 150 / 8990.0 -14.8 -1.1
2017-Apr-19 08:00S 68°30' E 172°00'0 0.0 150 / 8989.8 -14.5 -1.0
2017-Apr-19 07:00S 68°30' E 172°00'0 0.0 170 / 11989.8 -14.4 -1.0
2017-Apr-19 06:00S 68°30' E 172°00'0 0.0 180 / 9989.7 -14.4 -1.0
2017-Apr-19 05:00S 68°30' E 172°00'0 0.0 180 / 9989.7 -14.6 -1.0
2017-Apr-19 04:00S 68°30' E 172°00'0 0.0 170 / 10989.5 -15.1 -0.9
2017-Apr-19 03:00S 68°30' E 172°00'2 2.2 180 / 12989.1 -15.0 -0.9
2017-Apr-19 02:00S 68°30' E 171°54'0 0.0 190 / 14988.9 -14.5 -1.0
2017-Apr-19 01:00S 68°30' E 171°54'0 0.0 160 / 14988.6 -14.1 -0.9
2017-Apr-19 00:00S 68°30' E 171°54'0 0.0 160 / 17988.3 -13.8 -0.9
2017-Apr-18 23:00S 68°30' E 171°54'6 6.0 150 / 19987.8 -14.1 -0.9
2017-Apr-18 22:00S 68°24' E 171°54'1212.0 140 / 21987.2 -14.0 -0.9
2017-Apr-18 21:00S 68°12' E 171°54'6 6.4 140 / 23986.3 -13.2 -0.9
2017-Apr-18 20:00S 68°06' E 172°00'6 6.4 130 / 24985.4 -13.1 -0.8
2017-Apr-18 19:00S 68°00' E 171°54'1212.0 130 / 27984.7 -12.8 -0.8
2017-Apr-18 18:00S 67°48' E 171°54'6 6.0 130 / 28984.2 -11.8 -0.6
2017-Apr-18 17:00S 67°42' E 171°54'1212.2 120 / 29983.7 -11.2 -0.4
2017-Apr-18 16:00S 67°30' E 172°00'0 0.0 120 / 28983.1 -10.5 -0.4
2017-Apr-18 15:00S 67°30' E 172°00'0 0.0 130 / 25983.3 -11.7 -0.3
2017-Apr-18 14:00S 67°30' E 172°00'0 0.0 130 / 25983.5 -11.9 -0.3
2017-Apr-18 13:00S 67°30' E 172°00'6 6.0 130 / 25983.9 -11.4 -0.3
2017-Apr-18 12:00S 67°24' E 172°00'1212.0 120 / 27983.8 -9.8 -0.2
2017-Apr-18 11:00S 67°12' E 172°00'1212.0 120 / 28983.6 -8.7 -0.2
2017-Apr-18 10:00S 67°00' E 172°00'6 6.4 110 / 28983.3 -8.0 -0.2
2017-Apr-18 09:00S 66°54' E 171°54'6 6.0 110 / 28983.3 -7.6 -0.1
2017-Apr-18 08:00S 66°48' E 171°54'6 6.5 110 / 27983.6 -6.9 -0.1
2017-Apr-18 07:00S 66°42' E 172°00'1212.0 120 / 27983.7 -6.6 -0.1
2017-Apr-18 06:00S 66°30' E 172°00'6 6.0 120 / 27983.7 -6.1 -0.0
2017-Apr-18 05:00S 66°24' E 172°00'6 6.5 120 / 26983.6 -5.9 -0.0
2017-Apr-18 04:00S 66°18' E 171°54'1212.2 120 / 24984.0 -5.7 -0.0
2017-Apr-18 03:00S 66°06' E 172°00'6 6.0 130 / 23983.9 -5.5 -0.0
2017-Apr-18 02:00S 66°00' E 172°00'1212.0 140 / 20984.0 -5.3 -0.0
2017-Apr-18 01:00S 65°48' E 172°00'6 6.5 160 / 19983.7 -4.9 -0.0
2017-Apr-18 00:00S 65°42' E 171°54'1212.0 170 / 17983.1 -4.1 -0.0
2017-Apr-17 23:00S 65°30' E 171°54'0 0.0 180 / 18982.1 -3.4 -0.0
2017-Apr-17 22:00S 65°30' E 171°54'2 2.5 190 / 17981.3 -2.6 0.2
2017-Apr-17 21:00S 65°30' E 172°00'0 0.0 190 / 17980.2 -1.8 0.2
2017-Apr-17 20:00S 65°30' E 172°00'0 0.0 210 / 16979.1 -0.8 0.2
2017-Apr-17 19:00S 65°30' E 172°00'6 6.5 260 / 19978.4 -0.4 0.2
2017-Apr-17 18:00S 65°24' E 171°54'7 6.5 260 / 21977.5 -0.5 0.3
2017-Apr-17 17:00S 65°18' E 171°48'7 6.5 270 / 25977.0 -0.4 0.1
2017-Apr-17 16:00S 65°12' E 171°42'1212.3 290 / 28977.1 -0.3 0.3
2017-Apr-17 15:00S 65°00' E 171°36'7 6.5 290 / 30977.5 -0.3 0.3
2017-Apr-17 14:00S 64°54' E 171°30'7 6.5 290 / 29978.1 -0.4 0.6
2017-Apr-17 13:00S 64°48' E 171°24'1212.3 290 / 29978.6 -0.3 1.0
2017-Apr-17 12:00S 64°36' E 171°18'6 6.0 290 / 28979.0 -0.2 1.0
2017-Apr-17 11:00S 64°30' E 171°18'1212.3 290 / 27979.3 -0.0 0.9
2017-Apr-17 10:00S 64°18' E 171°12'7 6.5 290 / 24979.6 -0.2 0.8
2017-Apr-17 09:00S 64°12' E 171°06'13 6.5 280 / 25979.7 -0.0 0.7
2017-Apr-17 07:00S 64°00' E 170°54'1212.3 280 / 22979.9 -0.4 0.7
2017-Apr-17 06:00S 63°48' E 170°48'8 8.0 270 / 21979.7 -0.7 0.7
2017-Apr-17 05:00S 63°42' E 170°36'1212.3 270 / 20979.6 -0.4 0.9
2017-Apr-17 04:00S 63°30' E 170°30'7 6.6 280 / 18979.6 -0.3 1.2
2017-Apr-17 03:00S 63°24' E 170°24'8 8.1 320 / 24979.7 1.8 1.3
2017-Apr-17 02:00S 63°18' E 170°12'1212.3 360 / 28979.9 4.0 1.1
2017-Apr-17 01:00S 63°06' E 170°06'7 6.6 360 / 31980.7 5.5 1.3
2017-Apr-17 00:00S 63°00' E 170°00'7 6.6 981.7 3.4 1.7
2017-Apr-16 23:00S 62°54' E 169°54'7 6.6 360 / 33982.6 4.2 1.8
2017-Apr-16 22:00S 62°48' E 169°48'7 6.6 983.3 6.1 1.7
2017-Apr-16 21:00S 62°42' E 169°54'7 6.6 984.3 3.2 1.6
2017-Apr-16 20:00S 62°36' E 170°00'1212.0 985.7 3.0 1.7
2017-Apr-16 19:00S 62°24' E 170°00'1212.3 010 / 35987.0 3.5 1.8
2017-Apr-16 18:00S 62°12' E 169°54'7 6.6 988.6 3.4 1.9
2017-Apr-16 17:00S 62°06' E 170°00'1212.0 010 / 35990.3 3.2 2.0
2017-Apr-16 16:00S 61°54' E 170°00'6 6.0 010 / 35992.0 3.1 2.3
2017-Apr-16 15:00S 61°48' E 170°00'1212.0 010 / 34993.9 3.3 2.6
2017-Apr-16 14:00S 61°36' E 170°00'6 6.0 010 / 34995.6 3.1 3.1
2017-Apr-16 13:00S 61°30' E 170°00'1212.0 020 / 28997.3 5.2 3.6
2017-Apr-16 12:00S 61°18' E 170°00'1212.0 020 / 23998.9 5.2 3.7
2017-Apr-16 11:00S 61°06' E 170°00'6 6.0 010 / 231000.2 3.9 3.6
2017-Apr-16 10:00S 61°00' E 170°00'1212.0 010 / 201001.2 3.8 3.7
2017-Apr-16 09:00S 60°48' E 170°00'1212.4 1002.2 3.8 3.8
2017-Apr-16 08:00S 60°36' E 169°54'7 6.7 350 / 161003.1 3.4 4.0
2017-Apr-16 07:00S 60°30' E 170°00'1212.0 330 / 131003.7 3.3 4.1
2017-Apr-16 06:00S 60°18' E 170°00'1212.0 320 / 131004.0 2.5 4.6
2017-Apr-16 05:00S 60°06' E 170°00'7 6.7 310 / 131004.3 3.4 5.4
2017-Apr-16 04:00S 60°00' E 169°54'3 3.0 290 / 141004.4 3.7 5.2
2017-Apr-16 03:00S 60°00' E 170°00'0 0.0 290 / 151004.3 3.9 5.4
2017-Apr-16 02:00S 60°00' E 170°00'6 6.0 270 / 151004.2 3.6 5.4
2017-Apr-16 01:00S 59°54' E 170°00'6 6.0 250 / 171003.8 3.5 5.3
2017-Apr-16 00:00S 60°00' E 170°00'6 6.0 250 / 191003.4 3.6 5.3
2017-Apr-15 23:00S 59°54' E 170°00'6 6.0 250 / 221002.5 3.2 5.2
2017-Apr-15 22:00S 59°48' E 170°00'6 6.0 260 / 231001.6 3.1 5.3
2017-Apr-15 21:00S 59°42' E 170°00'1212.4 250 / 251000.9 2.4 6.4
2017-Apr-15 20:00S 59°30' E 170°06'6 6.0 250 / 261000.1 3.8 6.2
2017-Apr-15 19:00S 59°24' E 170°06'1212.0 250 / 26999.5 4.1 6.3
2017-Apr-15 18:00S 59°12' E 170°06'7 6.7 240 / 27998.9 2.5 6.7
2017-Apr-15 17:00S 59°06' E 170°12'1212.0 240 / 26998.4 1.4 6.2
2017-Apr-15 16:00S 58°54' E 170°12'   240 / 26997.9 2.9 6.7
Track history (hours):
 
Tides and Currents Weather Stations Pressure Air Temp Water Temp Dewpoint Dewpoint Depression Visibility Wind Speed Wind Dir Waves Ship Positions

Oceanographic research ship Nathaniel B. Palmer (USA)

Contact: Ethan Norris, ethan.norris.contractor@usap.gov

Detailed information on ship capabilities available from University of Delaware's Ocean Information Center and ARCUS's ALIAS (Arctic Logistics Information and Support) project.

Owner: OFFSHORE SERVICE VESSELS, GALLIANO, LA. More information available from US FCC via Universal Licensing System and Coast Guard Vessel Documentation Center.

Last reported at 2017-Apr-25 16:00 UTC. Time now 2017-Apr-25 16:34 UTC.
Position S 72°48' E 171°54'.

Type: Other ship. MMSI: 366610000.

Wind from 070 at 6 knots

Barometer 989.4 mb
Air temperature -17.2 ° C
Water temperature -1.8 ° C

Date/timePositionNaut miles runAvg speedWind from/ knotsBaromVisibWave heightAir tempDewpointWater temp
2017-Apr-25 16:00S 72°48' E 171°54'0 0.0 070 / 6989.4 -17.2 -1.8
2017-Apr-25 14:00S 72°48' E 171°54'0 0.0 040 / 12989.8 -16.9 -1.7
2017-Apr-25 13:00S 72°48' E 171°54'0 0.0 040 / 12990.1 -16.8 -1.7
2017-Apr-25 12:00S 72°48' E 171°54'0 0.0 030 / 14990.4 -16.3 -1.7
2017-Apr-25 11:00S 72°48' E 171°54'0 0.0 020 / 14990.6 -17.0 -1.7
2017-Apr-25 10:00S 72°48' E 171°54'0 0.0 350 / 8991.2 -15.5 -1.7
2017-Apr-25 09:00S 72°48' E 171°54'0 0.0 330 / 10991.3 -13.2 -1.7
2017-Apr-25 08:00S 72°48' E 171°54'0 0.0 280 / 8991.5 -15.8 -1.7
2017-Apr-25 07:00S 72°48' E 171°54'0 0.0 260 / 11991.6 -16.1 -1.7
2017-Apr-25 06:00S 72°48' E 171°54'0 0.0 270 / 11991.6 -16.2 -1.7
2017-Apr-25 05:00S 72°48' E 171°54'0 0.0 270 / 11991.5 -15.1 -1.7
2017-Apr-25 04:00S 72°48' E 171°54'0 0.0 260 / 11991.4 -14.5 -1.7
2017-Apr-25 03:00S 72°48' E 171°54'0 0.0 260 / 11991.0 -13.5 -1.7
2017-Apr-25 02:00S 72°48' E 171°54'2 1.8 220 / 14990.6 -12.8 -1.7
2017-Apr-25 01:00S 72°48' E 171°48'6 6.0 210 / 19989.9 -13.0 -1.7
2017-Apr-25 00:00S 72°54' E 171°48'0 0.0 210 / 20989.6 -13.2 -1.7
2017-Apr-24 23:00S 72°54' E 171°48'0 0.0 230 / 16989.2 -13.9 -1.7
2017-Apr-24 22:00S 72°54' E 171°48'0 0.0 230 / 21988.6 -13.9 -1.7
2017-Apr-24 21:00S 72°54' E 171°48'2 1.8 220 / 24988.1 -14.1 -1.8
2017-Apr-24 20:00S 72°54' E 171°42'0 0.0 220 / 22987.7 -14.2 -1.8
2017-Apr-24 19:00S 72°54' E 171°42'2 1.8 230 / 18987.3 -14.9 -1.7
2017-Apr-24 18:00S 72°54' E 171°36'0 0.0 220 / 21986.8 -14.3 -1.8
2017-Apr-24 17:00S 72°54' E 171°36'0 0.0 210 / 26986.3 -14.3 -1.8
2017-Apr-24 16:00S 72°54' E 171°36'0 0.0 210 / 23986.1 -14.4 -1.7
2017-Apr-24 15:00S 72°54' E 171°36'0 0.0 220 / 23985.6 -14.6 -1.7
2017-Apr-24 14:00S 72°54' E 171°36'0 0.0 210 / 23985.1 -14.5 -1.7
2017-Apr-24 13:00S 72°54' E 171°36'4 3.5 210 / 24984.8 -14.9 -1.7
2017-Apr-24 12:00S 72°54' E 171°48'6 6.0 210 / 26984.1 -14.9 -1.7
2017-Apr-24 11:00S 72°48' E 171°48'6 6.0 220 / 22983.7 -15.7 -1.7
2017-Apr-24 10:00S 72°42' E 171°48'7 7.0 220 / 20983.5 -16.6 -1.7
2017-Apr-24 09:00S 72°36' E 172°00'6 6.0 220 / 19982.9 -16.6 -1.7
2017-Apr-24 08:00S 72°30' E 172°00'0 0.0 210 / 21982.7 -16.2 -1.8
2017-Apr-24 07:00S 72°30' E 172°00'6 6.0 210 / 19982.6 -16.3 -1.8
2017-Apr-24 06:00S 72°24' E 172°00'2 1.8 220 / 19982.2 -16.8 -1.8
2017-Apr-24 05:00S 72°24' E 171°54'0 0.0 220 / 18982.1 -16.6 -1.8
2017-Apr-24 04:00S 72°24' E 171°54'2 1.8 220 / 17981.9 -16.9 -1.8
2017-Apr-24 03:00S 72°24' E 172°00'4 3.6 200 / 22981.6 -16.7 -1.8
2017-Apr-24 02:00S 72°24' E 172°12'6 6.3 200 / 23981.3 -16.6 -1.8
2017-Apr-24 01:00S 72°18' E 172°06'6 6.3 210 / 20981.3 -17.0 -1.8
2017-Apr-24 00:00S 72°12' E 172°12'6 6.0 200 / 21981.1 -17.3 -1.8
2017-Apr-23 23:00S 72°06' E 172°12'6 6.3 190 / 27980.6 -16.7 -1.8
2017-Apr-23 22:00S 72°00' E 172°18'6 6.3 200 / 27980.1 -16.7 -1.8
2017-Apr-23 21:00S 71°54' E 172°12'6 6.3 200 / 28980.0 -16.7 -1.8
2017-Apr-23 20:00S 71°48' E 172°18'0 0.0 200 / 29979.7 -16.8 -1.8
2017-Apr-23 19:00S 71°48' E 172°18'0 0.0 190 / 29979.6 -16.3 -1.7
2017-Apr-23 18:00S 71°48' E 172°18'0 0.0 190 / 27979.6 -16.5 -1.7
2017-Apr-23 17:00S 71°48' E 172°18'6 6.0 190 / 27979.5 -16.8 -1.7
2017-Apr-23 16:00S 71°54' E 172°18'0 0.0 200 / 26979.4 -17.0 -1.7
2017-Apr-23 15:00S 71°54' E 172°18'0 0.0 200 / 25979.4 -17.1 -1.7
2017-Apr-23 14:00S 71°54' E 172°18'2 1.9 200 / 26979.5 -17.5 -1.8
2017-Apr-23 13:00S 71°54' E 172°12'2 1.9 200 / 26979.5 -18.1 -1.7
2017-Apr-23 12:00S 71°54' E 172°18'0 0.0 200 / 25979.4 -18.6 -1.7
2017-Apr-23 11:00S 71°54' E 172°18'0 0.0 200 / 25979.4 -18.5 -1.8
2017-Apr-23 10:00S 71°54' E 172°18'6 6.0 190 / 26979.5 -19.0 -1.8
2017-Apr-23 09:00S 71°48' E 172°18'6 6.0 200 / 26979.4 -19.4 -1.8
2017-Apr-23 08:00S 71°42' E 172°18'6 6.0 190 / 27979.2 -19.6 -1.7
2017-Apr-23 07:00S 71°36' E 172°18'7 7.1 190 / 29979.0 -19.6 -1.8
2017-Apr-23 06:00S 71°30' E 172°30'6 6.0 180 / 29978.6 -19.5 -1.8
2017-Apr-23 05:00S 71°24' E 172°30'6 6.0 180 / 29978.5 -19.9 -1.7
2017-Apr-23 04:00S 71°30' E 172°30'0 0.0 180 / 30978.5 -20.0 -1.8
2017-Apr-23 03:00S 71°30' E 172°30'0 0.0 190 / 29978.7 -19.8 -1.8
2017-Apr-23 02:00S 71°30' E 172°30'6 6.0 190 / 27978.8 -24.8 -1.8
2017-Apr-23 01:00S 71°24' E 172°30'2 1.9 190 / 27978.8 -20.3 -1.7
2017-Apr-23 00:00S 71°24' E 172°24'6 6.3 180 / 28979.0 -20.0 -1.8
2017-Apr-22 23:00S 71°18' E 172°18'6 6.3 170 / 27979.0 -20.0 -1.7
2017-Apr-22 22:00S 71°12' E 172°12'6 6.3 180 / 24978.9 -19.8 -1.7
2017-Apr-22 21:00S 71°06' E 172°06'6 6.3 170 / 23978.9 -19.7 -1.7
2017-Apr-22 20:00S 71°00' E 172°00'6 6.3 170 / 23979.0 -19.2 -1.7
2017-Apr-22 19:00S 70°54' E 171°54'0 0.0 160 / 20979.0 -18.6 -1.6
2017-Apr-22 18:00S 70°54' E 171°54'2 2.0 170 / 21979.2 -18.4 -1.7
2017-Apr-22 17:00S 70°54' E 172°00'6 6.0 160 / 21979.2 -18.5 -1.8
2017-Apr-22 16:00S 70°48' E 172°00'6 6.0 160 / 19979.3 -18.4 -1.8
2017-Apr-22 15:00S 70°42' E 172°00'6 6.0 150 / 17979.4 -18.0 -1.8
2017-Apr-22 14:00S 70°36' E 172°00'6 6.3 140 / 11979.8 -17.8 -1.8
2017-Apr-22 13:00S 70°30' E 171°54'6 6.0 130 / 11980.2 -17.7 -1.8
2017-Apr-22 12:00S 70°24' E 171°54'0 0.0 120 / 6980.7 -17.5 -1.8
2017-Apr-22 11:00S 70°24' E 171°54'6 6.3 120 / 7981.4 -17.4 -1.8
2017-Apr-22 10:00S 70°18' E 172°00'0 0.0 120 / 6981.8 -17.3 -1.8
2017-Apr-22 09:00S 70°18' E 172°00'6 6.0 130 / 5982.5 -16.7 -1.8
2017-Apr-22 08:00S 70°12' E 172°00'6 6.0 130 / 4983.0 -16.3 -1.8
2017-Apr-22 07:00S 70°06' E 172°00'6 6.0 140 / 5983.5 -16.3 -1.8
2017-Apr-22 06:00S 70°00' E 172°00'6 6.0 150 / 6984.1 -16.2 -1.8
2017-Apr-22 05:00S 69°54' E 172°00'0 0.0 190 / 4984.9 -15.8 -1.7
2017-Apr-22 04:00S 69°54' E 172°00'0 0.0 240 / 5985.9 -15.4 -1.7
2017-Apr-22 03:00S 69°54' E 172°00'0 0.0 250 / 7986.8 -25.5 -1.7
2017-Apr-22 02:00S 69°54' E 172°00'0 0.0 260 / 7987.7 -46.8 -1.7
2017-Apr-22 01:00S 69°54' E 172°00'0 0.0 240 / 6988.5 -46.8 -1.7
2017-Apr-22 00:00S 69°54' E 172°00'0 0.0 230 / 7988.9 -33.5 -1.8
2017-Apr-21 23:00S 69°54' E 172°00'2 2.1 230 / 9989.3 -22.4 -1.8
2017-Apr-21 22:00S 69°54' E 171°54'0 0.0 210 / 8989.7 -25.2 -1.7
2017-Apr-21 21:00S 69°54' E 171°54'0 0.0 190 / 8989.9 -16.1 -1.8
2017-Apr-21 20:00S 69°54' E 171°54'6 6.0 170 / 11989.9 -15.7 -1.8
2017-Apr-21 19:00S 69°48' E 171°54'6 6.0 170 / 15989.8 -16.4 -1.8
2017-Apr-21 18:00S 69°42' E 171°54'6 6.0 180 / 17989.9 -15.2 -1.8
2017-Apr-21 17:00S 69°36' E 171°54'0 0.0 180 / 16989.7 -14.7 -1.7
2017-Apr-21 16:00S 69°36' E 171°54'6 6.0 180 / 17989.5 -16.3 -1.7
2017-Apr-21 15:00S 69°30' E 171°54'6 6.0 180 / 19989.0 -14.8 -1.8
2017-Apr-21 14:00S 69°24' E 171°54'6 6.0 170 / 19988.4 -14.4 -1.8
2017-Apr-21 13:00S 69°18' E 171°54'0 0.0 170 / 20987.9 -14.2 -1.8
2017-Apr-21 12:00S 69°18' E 171°54'0 0.0 170 / 20987.3 -13.9 -1.8
2017-Apr-21 11:00S 69°18' E 171°54'0 0.0 170 / 20986.6 -13.8 -1.8
2017-Apr-21 10:00S 69°18' E 171°54'6 6.4 150 / 23986.1 -13.7 -1.8
2017-Apr-21 09:00S 69°12' E 171°48'6 6.0 160 / 23985.4 -13.4 -1.7
2017-Apr-21 08:00S 69°06' E 171°48'2 2.1 160 / 21984.7 -13.3 -1.7
2017-Apr-21 07:00S 69°06' E 171°42'0 0.0 160 / 20984.0 -13.3 -1.7
2017-Apr-21 06:00S 69°06' E 171°42'0 0.0 160 / 20983.7 -13.2 -1.7
2017-Apr-21 05:00S 69°06' E 171°42'2 2.1 150 / 20983.1 -12.8 -1.7
2017-Apr-21 04:00S 69°06' E 171°48'0 0.0 150 / 21982.4 -12.6 -1.7
2017-Apr-21 03:00S 69°06' E 171°48'2 2.1 150 / 23981.6 -12.7 -1.7
2017-Apr-21 02:00S 69°06' E 171°54'0 0.0 140 / 17981.0 -13.1 -1.7
2017-Apr-21 01:00S 69°06' E 171°54'6 6.0 160 / 21980.3 -15.8 -1.7
2017-Apr-21 00:00S 69°12' E 171°54'0 0.0 170 / 21980.2 -15.1 -1.7
2017-Apr-20 23:00S 69°12' E 171°54'0 0.0 150 / 20979.9 -20.4 -1.7
2017-Apr-20 22:00S 69°12' E 171°54'0 0.0 140 / 22979.5 -26.6 -1.7
2017-Apr-20 21:00S 69°12' E 171°54'2 2.1 150 / 22978.8 -12.0 -1.7
2017-Apr-20 20:00S 69°12' E 172°00'0 0.0 150 / 18978.6 -12.4 -1.7
2017-Apr-20 19:00S 69°12' E 172°00'0 0.0 140 / 20978.2 -12.9 -1.7
2017-Apr-20 18:00S 69°12' E 172°00'0 0.0 130 / 22977.9 -13.5 -1.7
2017-Apr-20 17:00S 69°12' E 172°00'2 2.1 120 / 24977.5 -13.8 -1.7
2017-Apr-20 16:00S 69°12' E 171°54'6 6.0 120 / 24977.0 -14.2 -1.7
2017-Apr-20 15:00S 69°18' E 171°54'0 0.0 130 / 24976.4 -14.4 -1.7
2017-Apr-20 14:00S 69°18' E 171°54'0 0.0 120 / 23976.3 -14.5 -1.7
2017-Apr-20 13:00S 69°18' E 171°54'2 2.1 120 / 25976.0 -14.7 -1.7
2017-Apr-20 12:00S 69°18' E 172°00'6 6.0 110 / 28975.2 -13.8 -1.8
2017-Apr-20 11:00S 69°12' E 172°00'6 6.0 110 / 29974.8 -13.4 -1.8
2017-Apr-20 10:00S 69°06' E 172°00'6 6.4 110 / 33974.2 -13.2 -1.8
2017-Apr-20 09:00S 69°00' E 171°54'6 6.0 100 / 35973.8 -12.4 -1.7
2017-Apr-20 08:00S 68°54' E 171°54'2 2.2 100 / 38974.1 -11.7 -1.7
2017-Apr-20 07:00S 68°54' E 171°48'6 6.4 090 / 39974.4 -10.9 -1.7
2017-Apr-20 06:00S 68°48' E 171°42'0 0.0 090 / 38974.4 -10.3 -1.7
2017-Apr-20 05:00S 68°48' E 171°42'0 0.0 080 / 37975.4 -10.2 -1.6
2017-Apr-20 04:00S 68°48' E 171°42'2 2.2 080 / 35976.8 -10.1 -1.3
2017-Apr-20 03:00S 68°48' E 171°48'0 0.0 090 / 34978.8 -10.2 -1.5
2017-Apr-20 02:00S 68°48' E 171°48'0 0.0 090 / 31980.9 -11.0 -1.4
2017-Apr-20 01:00S 68°48' E 171°48'6 6.4 090 / 26982.7 -10.4 -1.4
2017-Apr-20 00:00S 68°42' E 171°54'6 6.0 090 / 18984.3 -10.8 -1.3
2017-Apr-19 23:00S 68°48' E 171°54'0 0.0 090 / 15985.9 -12.3 -1.2
2017-Apr-19 22:00S 68°48' E 171°54'6 6.0 100 / 12987.0 -13.1 -1.2
2017-Apr-19 21:00S 68°42' E 171°54'2 2.2 090 / 8988.2 -12.8 -1.2
2017-Apr-19 20:00S 68°42' E 172°00'6 6.0 110 / 6988.7 -13.3 -1.2
2017-Apr-19 19:00S 68°48' E 172°00'6 6.0 130 / 4989.3 -13.8 -1.5
2017-Apr-19 18:00S 68°54' E 172°00'6 6.0 130 / 3990.0 -14.0 -1.6
2017-Apr-19 17:00S 68°48' E 172°00'0 0.0 120 / 4990.2 -14.0 -1.6
2017-Apr-19 16:00S 68°48' E 172°00'0 0.0 140 / 4990.4 -14.1 -1.5
2017-Apr-19 15:00S 68°48' E 172°00'0 0.0 170 / 4990.5 -14.2 -1.3
2017-Apr-19 14:00S 68°48' E 172°00'6 6.0 150 / 7990.4 -14.9 -1.6
2017-Apr-19 13:00S 68°54' E 172°00'0 0.0 150 / 8990.3 -14.6 -1.6
2017-Apr-19 12:00S 68°54' E 172°00'6 6.0 170 / 6990.5 -14.7 -1.6
2017-Apr-19 11:00S 68°48' E 172°00'6 6.0 170 / 8990.5 -14.6 -1.4
2017-Apr-19 10:00S 68°42' E 172°00'6 6.0 160 / 7990.3 -14.3 -1.3
2017-Apr-19 09:00S 68°36' E 172°00'6 6.0 150 / 8990.0 -14.8 -1.1
2017-Apr-19 08:00S 68°30' E 172°00'0 0.0 150 / 8989.8 -14.5 -1.0
2017-Apr-19 07:00S 68°30' E 172°00'0 0.0 170 / 11989.8 -14.4 -1.0
2017-Apr-19 06:00S 68°30' E 172°00'0 0.0 180 / 9989.7 -14.4 -1.0
2017-Apr-19 05:00S 68°30' E 172°00'0 0.0 180 / 9989.7 -14.6 -1.0
2017-Apr-19 04:00S 68°30' E 172°00'0 0.0 170 / 10989.5 -15.1 -0.9
2017-Apr-19 03:00S 68°30' E 172°00'2 2.2 180 / 12989.1 -15.0 -0.9
2017-Apr-19 02:00S 68°30' E 171°54'0 0.0 190 / 14988.9 -14.5 -1.0
2017-Apr-19 01:00S 68°30' E 171°54'0 0.0 160 / 14988.6 -14.1 -0.9
2017-Apr-19 00:00S 68°30' E 171°54'0 0.0 160 / 17988.3 -13.8 -0.9
2017-Apr-18 23:00S 68°30' E 171°54'6 6.0 150 / 19987.8 -14.1 -0.9
2017-Apr-18 22:00S 68°24' E 171°54'1212.0 140 / 21987.2 -14.0 -0.9
2017-Apr-18 21:00S 68°12' E 171°54'6 6.4 140 / 23986.3 -13.2 -0.9
2017-Apr-18 20:00S 68°06' E 172°00'6 6.4 130 / 24985.4 -13.1 -0.8
2017-Apr-18 19:00S 68°00' E 171°54'1212.0 130 / 27984.7 -12.8 -0.8
2017-Apr-18 18:00S 67°48' E 171°54'6 6.0 130 / 28984.2 -11.8 -0.6
2017-Apr-18 17:00S 67°42' E 171°54'1212.2 120 / 29983.7 -11.2 -0.4
2017-Apr-18 16:00S 67°30' E 172°00'0 0.0 120 / 28983.1 -10.5 -0.4
2017-Apr-18 15:00S 67°30' E 172°00'0 0.0 130 / 25983.3 -11.7 -0.3
2017-Apr-18 14:00S 67°30' E 172°00'0 0.0 130 / 25983.5 -11.9 -0.3
2017-Apr-18 13:00S 67°30' E 172°00'6 6.0 130 / 25983.9 -11.4 -0.3
2017-Apr-18 12:00S 67°24' E 172°00'1212.0 120 / 27983.8 -9.8 -0.2
2017-Apr-18 11:00S 67°12' E 172°00'1212.0 120 / 28983.6 -8.7 -0.2
2017-Apr-18 10:00S 67°00' E 172°00'6 6.4 110 / 28983.3 -8.0 -0.2
2017-Apr-18 09:00S 66°54' E 171°54'6 6.0 110 / 28983.3 -7.6 -0.1
2017-Apr-18 08:00S 66°48' E 171°54'6 6.5 110 / 27983.6 -6.9 -0.1
2017-Apr-18 07:00S 66°42' E 172°00'1212.0 120 / 27983.7 -6.6 -0.1
2017-Apr-18 06:00S 66°30' E 172°00'6 6.0 120 / 27983.7 -6.1 -0.0
2017-Apr-18 05:00S 66°24' E 172°00'6 6.5 120 / 26983.6 -5.9 -0.0
2017-Apr-18 04:00S 66°18' E 171°54'1212.2 120 / 24984.0 -5.7 -0.0
2017-Apr-18 03:00S 66°06' E 172°00'6 6.0 130 / 23983.9 -5.5 -0.0
2017-Apr-18 02:00S 66°00' E 172°00'1212.0 140 / 20984.0 -5.3 -0.0
2017-Apr-18 01:00S 65°48' E 172°00'6 6.5 160 / 19983.7 -4.9 -0.0
2017-Apr-18 00:00S 65°42' E 171°54'1212.0 170 / 17983.1 -4.1 -0.0
2017-Apr-17 23:00S 65°30' E 171°54'0 0.0 180 / 18982.1 -3.4 -0.0
2017-Apr-17 22:00S 65°30' E 171°54'2 2.5 190 / 17981.3 -2.6 0.2
2017-Apr-17 21:00S 65°30' E 172°00'0 0.0 190 / 17980.2 -1.8 0.2
2017-Apr-17 20:00S 65°30' E 172°00'0 0.0 210 / 16979.1 -0.8 0.2
2017-Apr-17 19:00S 65°30' E 172°00'6 6.5 260 / 19978.4 -0.4 0.2
2017-Apr-17 18:00S 65°24' E 171°54'7 6.5 260 / 21977.5 -0.5 0.3
2017-Apr-17 17:00S 65°18' E 171°48'7 6.5 270 / 25977.0 -0.4 0.1
2017-Apr-17 16:00S 65°12' E 171°42'1212.3 290 / 28977.1 -0.3 0.3
2017-Apr-17 15:00S 65°00' E 171°36'7 6.5 290 / 30977.5 -0.3 0.3
2017-Apr-17 14:00S 64°54' E 171°30'7 6.5 290 / 29978.1 -0.4 0.6
2017-Apr-17 13:00S 64°48' E 171°24'1212.3 290 / 29978.6 -0.3 1.0
2017-Apr-17 12:00S 64°36' E 171°18'6 6.0 290 / 28979.0 -0.2 1.0
2017-Apr-17 11:00S 64°30' E 171°18'1212.3 290 / 27979.3 -0.0 0.9
2017-Apr-17 10:00S 64°18' E 171°12'7 6.5 290 / 24979.6 -0.2 0.8
2017-Apr-17 09:00S 64°12' E 171°06'13 6.5 280 / 25979.7 -0.0 0.7
2017-Apr-17 07:00S 64°00' E 170°54'1212.3 280 / 22979.9 -0.4 0.7
2017-Apr-17 06:00S 63°48' E 170°48'8 8.0 270 / 21979.7 -0.7 0.7
2017-Apr-17 05:00S 63°42' E 170°36'1212.3 270 / 20979.6 -0.4 0.9
2017-Apr-17 04:00S 63°30' E 170°30'7 6.6 280 / 18979.6 -0.3 1.2
2017-Apr-17 03:00S 63°24' E 170°24'8 8.1 320 / 24979.7 1.8 1.3
2017-Apr-17 02:00S 63°18' E 170°12'1212.3 360 / 28979.9 4.0 1.1
2017-Apr-17 01:00S 63°06' E 170°06'7 6.6 360 / 31980.7 5.5 1.3
2017-Apr-17 00:00S 63°00' E 170°00'7 6.6 981.7 3.4 1.7
2017-Apr-16 23:00S 62°54' E 169°54'7 6.6 360 / 33982.6 4.2 1.8
2017-Apr-16 22:00S 62°48' E 169°48'7 6.6 983.3 6.1 1.7
2017-Apr-16 21:00S 62°42' E 169°54'7 6.6 984.3 3.2 1.6
2017-Apr-16 20:00S 62°36' E 170°00'1212.0 985.7 3.0 1.7
2017-Apr-16 19:00S 62°24' E 170°00'1212.3 010 / 35987.0 3.5 1.8
2017-Apr-16 18:00S 62°12' E 169°54'7 6.6 988.6 3.4 1.9
2017-Apr-16 17:00S 62°06' E 170°00'1212.0 010 / 35990.3 3.2 2.0
2017-Apr-16 16:00S 61°54' E 170°00'6 6.0 010 / 35992.0 3.1 2.3
2017-Apr-16 15:00S 61°48' E 170°00'1212.0 010 / 34993.9 3.3 2.6
2017-Apr-16 14:00S 61°36' E 170°00'6 6.0 010 / 34995.6 3.1 3.1
2017-Apr-16 13:00S 61°30' E 170°00'1212.0 020 / 28997.3 5.2 3.6
2017-Apr-16 12:00S 61°18' E 170°00'1212.0 020 / 23998.9 5.2 3.7
2017-Apr-16 11:00S 61°06' E 170°00'6 6.0 010 / 231000.2 3.9 3.6
2017-Apr-16 10:00S 61°00' E 170°00'1212.0 010 / 201001.2 3.8 3.7
2017-Apr-16 09:00S 60°48' E 170°00'1212.4 1002.2 3.8 3.8
2017-Apr-16 08:00S 60°36' E 169°54'7 6.7 350 / 161003.1 3.4 4.0
2017-Apr-16 07:00S 60°30' E 170°00'1212.0 330 / 131003.7 3.3 4.1
2017-Apr-16 06:00S 60°18' E 170°00'1212.0 320 / 131004.0 2.5 4.6
2017-Apr-16 05:00S 60°06' E 170°00'7 6.7 310 / 131004.3 3.4 5.4
2017-Apr-16 04:00S 60°00' E 169°54'3 3.0 290 / 141004.4 3.7 5.2
2017-Apr-16 03:00S 60°00' E 170°00'0 0.0 290 / 151004.3 3.9 5.4
2017-Apr-16 02:00S 60°00' E 170°00'6 6.0 270 / 151004.2 3.6 5.4
2017-Apr-16 01:00S 59°54' E 170°00'6 6.0 250 / 171003.8 3.5 5.3
2017-Apr-16 00:00S 60°00' E 170°00'6 6.0 250 / 191003.4 3.6 5.3
2017-Apr-15 23:00S 59°54' E 170°00'6 6.0 250 / 221002.5 3.2 5.2
2017-Apr-15 22:00S 59°48' E 170°00'6 6.0 260 / 231001.6 3.1 5.3
2017-Apr-15 21:00S 59°42' E 170°00'1212.4 250 / 251000.9 2.4 6.4
2017-Apr-15 20:00S 59°30' E 170°06'6 6.0 250 / 261000.1 3.8 6.2
2017-Apr-15 19:00S 59°24' E 170°06'1212.0 250 / 26999.5 4.1 6.3
2017-Apr-15 18:00S 59°12' E 170°06'7 6.7 240 / 27998.9 2.5 6.7
2017-Apr-15 17:00S 59°06' E 170°12'1212.0 240 / 26998.4 1.4 6.2
2017-Apr-15 16:00S 58°54' E 170°12'   240 / 26997.9 2.9 6.7

Dump ship's entire track history